sensor_id;sensor_type;location;lat;lon;timestamp;P1;durP1;ratioP1;P2;durP2;ratioP2
40907;SDS011;51055;59.436;24.778;2023-08-20T00:01:50;4.72;;;2.30;;
40907;SDS011;51055;59.436;24.778;2023-08-20T00:04:26;4.28;;;2.50;;
40907;SDS011;51055;59.436;24.778;2023-08-20T00:06:55;4.40;;;2.30;;
40907;SDS011;51055;59.436;24.778;2023-08-20T00:09:23;5.73;;;2.40;;
40907;SDS011;51055;59.436;24.778;2023-08-20T00:11:53;5.32;;;2.60;;
40907;SDS011;51055;59.436;24.778;2023-08-20T00:14:21;5.18;;;2.45;;
40907;SDS011;51055;59.436;24.778;2023-08-20T00:17:37;5.53;;;2.50;;
40907;SDS011;51055;59.436;24.778;2023-08-20T00:20:07;4.63;;;2.38;;
40907;SDS011;51055;59.436;24.778;2023-08-20T00:22:43;5.85;;;2.50;;
40907;SDS011;51055;59.436;24.778;2023-08-20T00:25:13;6.72;;;2.35;;
40907;SDS011;51055;59.436;24.778;2023-08-20T00:27:41;4.50;;;2.30;;
40907;SDS011;51055;59.436;24.778;2023-08-20T00:30:09;6.88;;;2.45;;
40907;SDS011;51055;59.436;24.778;2023-08-20T00:32:38;5.85;;;2.47;;
40907;SDS011;51055;59.436;24.778;2023-08-20T00:35:06;6.87;;;2.30;;
40907;SDS011;51055;59.436;24.778;2023-08-20T00:37:37;5.53;;;2.20;;
40907;SDS011;51055;59.436;24.778;2023-08-20T00:40:04;5.53;;;2.70;;
40907;SDS011;51055;59.436;24.778;2023-08-20T00:42:33;5.60;;;2.45;;
40907;SDS011;51055;59.436;24.778;2023-08-20T00:45:01;3.47;;;1.95;;
40907;SDS011;51055;59.436;24.778;2023-08-20T00:47:29;5.63;;;2.45;;
40907;SDS011;51055;59.436;24.778;2023-08-20T00:49:57;4.15;;;2.25;;
40907;SDS011;51055;59.436;24.778;2023-08-20T00:52:25;9.02;;;2.60;;
40907;SDS011;51055;59.436;24.778;2023-08-20T00:54:53;5.65;;;2.40;;
40907;SDS011;51055;59.436;24.778;2023-08-20T00:59:50;5.38;;;2.47;;
40907;SDS011;51055;59.436;24.778;2023-08-20T01:02:18;4.55;;;2.20;;
40907;SDS011;51055;59.436;24.778;2023-08-20T01:04:47;5.78;;;2.40;;
40907;SDS011;51055;59.436;24.778;2023-08-20T01:07:36;6.25;;;2.40;;
40907;SDS011;51055;59.436;24.778;2023-08-20T01:10:18;5.00;;;2.35;;
40907;SDS011;51055;59.436;24.778;2023-08-20T01:12:52;5.43;;;2.63;;
40907;SDS011;51055;59.436;24.778;2023-08-20T01:15:21;5.68;;;2.70;;
40907;SDS011;51055;59.436;24.778;2023-08-20T01:17:50;6.07;;;3.00;;
40907;SDS011;51055;59.436;24.778;2023-08-20T01:20:17;6.57;;;2.70;;
40907;SDS011;51055;59.436;24.778;2023-08-20T01:33:23;7.70;;;3.20;;
40907;SDS011;51055;59.436;24.778;2023-08-20T01:35:54;7.15;;;3.00;;
40907;SDS011;51055;59.436;24.778;2023-08-20T01:38:22;6.05;;;3.30;;
40907;SDS011;51055;59.436;24.778;2023-08-20T01:40:50;6.28;;;3.10;;
40907;SDS011;51055;59.436;24.778;2023-08-20T01:43:18;4.57;;;2.80;;
40907;SDS011;51055;59.436;24.778;2023-08-20T01:45:46;5.90;;;3.35;;
40907;SDS011;51055;59.436;24.778;2023-08-20T01:48:13;7.30;;;3.67;;
40907;SDS011;51055;59.436;24.778;2023-08-20T01:50:41;6.78;;;3.45;;
40907;SDS011;51055;59.436;24.778;2023-08-20T01:53:09;6.00;;;3.60;;
40907;SDS011;51055;59.436;24.778;2023-08-20T01:55:37;4.88;;;3.10;;
40907;SDS011;51055;59.436;24.778;2023-08-20T01:58:04;6.00;;;3.05;;
40907;SDS011;51055;59.436;24.778;2023-08-20T02:00:32;7.57;;;3.65;;
40907;SDS011;51055;59.436;24.778;2023-08-20T02:03:01;6.70;;;3.50;;
40907;SDS011;51055;59.436;24.778;2023-08-20T02:05:29;6.55;;;3.60;;
40907;SDS011;51055;59.436;24.778;2023-08-20T02:07:57;5.40;;;3.38;;
40907;SDS011;51055;59.436;24.778;2023-08-20T02:10:25;7.55;;;4.18;;
40907;SDS011;51055;59.436;24.778;2023-08-20T02:12:53;8.82;;;4.00;;
40907;SDS011;51055;59.436;24.778;2023-08-20T02:15:21;7.53;;;3.70;;
40907;SDS011;51055;59.436;24.778;2023-08-20T02:17:48;6.65;;;3.40;;
40907;SDS011;51055;59.436;24.778;2023-08-20T02:20:16;7.95;;;4.72;;
40907;SDS011;51055;59.436;24.778;2023-08-20T02:22:43;8.02;;;3.90;;
40907;SDS011;51055;59.436;24.778;2023-08-20T02:25:11;7.22;;;4.25;;
40907;SDS011;51055;59.436;24.778;2023-08-20T02:27:38;6.65;;;3.92;;
40907;SDS011;51055;59.436;24.778;2023-08-20T02:30:06;8.57;;;5.10;;
40907;SDS011;51055;59.436;24.778;2023-08-20T02:32:34;6.90;;;4.50;;
40907;SDS011;51055;59.436;24.778;2023-08-20T02:35:02;6.63;;;4.45;;
40907;SDS011;51055;59.436;24.778;2023-08-20T02:37:32;6.68;;;4.60;;
40907;SDS011;51055;59.436;24.778;2023-08-20T02:40:00;7.82;;;4.20;;
40907;SDS011;51055;59.436;24.778;2023-08-20T02:42:28;6.75;;;4.60;;
40907;SDS011;51055;59.436;24.778;2023-08-20T02:44:56;6.75;;;4.75;;
40907;SDS011;51055;59.436;24.778;2023-08-20T02:47:23;7.07;;;4.55;;
40907;SDS011;51055;59.436;24.778;2023-08-20T02:49:51;7.80;;;4.80;;
40907;SDS011;51055;59.436;24.778;2023-08-20T02:52:19;7.70;;;4.90;;
40907;SDS011;51055;59.436;24.778;2023-08-20T02:54:47;6.90;;;4.85;;
40907;SDS011;51055;59.436;24.778;2023-08-20T02:57:15;9.07;;;5.72;;
40907;SDS011;51055;59.436;24.778;2023-08-20T02:59:42;8.65;;;5.28;;
40907;SDS011;51055;59.436;24.778;2023-08-20T03:02:10;10.88;;;5.90;;
40907;SDS011;51055;59.436;24.778;2023-08-20T03:04:37;8.57;;;6.07;;
40907;SDS011;51055;59.436;24.778;2023-08-20T03:07:05;9.52;;;6.32;;
40907;SDS011;51055;59.436;24.778;2023-08-20T03:09:32;7.78;;;5.55;;
40907;SDS011;51055;59.436;24.778;2023-08-20T03:12:00;8.63;;;5.40;;
40907;SDS011;51055;59.436;24.778;2023-08-20T03:14:27;12.43;;;6.18;;
40907;SDS011;51055;59.436;24.778;2023-08-20T03:16:55;8.32;;;5.93;;
40907;SDS011;51055;59.436;24.778;2023-08-20T03:19:22;7.53;;;5.38;;
40907;SDS011;51055;59.436;24.778;2023-08-20T03:21:50;8.18;;;5.65;;
40907;SDS011;51055;59.436;24.778;2023-08-20T03:24:18;7.97;;;5.78;;
40907;SDS011;51055;59.436;24.778;2023-08-20T03:26:45;9.02;;;5.55;;
40907;SDS011;51055;59.436;24.778;2023-08-20T03:31:42;7.60;;;5.50;;
40907;SDS011;51055;59.436;24.778;2023-08-20T03:34:09;8.48;;;5.80;;
40907;SDS011;51055;59.436;24.778;2023-08-20T03:36:37;8.73;;;5.75;;
40907;SDS011;51055;59.436;24.778;2023-08-20T03:39:05;9.57;;;5.65;;
40907;SDS011;51055;59.436;24.778;2023-08-20T03:41:33;7.10;;;5.55;;
40907;SDS011;51055;59.436;24.778;2023-08-20T03:44:00;8.40;;;6.47;;
40907;SDS011;51055;59.436;24.778;2023-08-20T03:46:28;9.77;;;6.82;;
40907;SDS011;51055;59.436;24.778;2023-08-20T03:48:56;11.90;;;6.65;;
40907;SDS011;51055;59.436;24.778;2023-08-20T03:51:23;9.50;;;6.00;;
40907;SDS011;51055;59.436;24.778;2023-08-20T03:53:51;8.10;;;6.35;;
40907;SDS011;51055;59.436;24.778;2023-08-20T03:56:18;12.52;;;7.82;;
40907;SDS011;51055;59.436;24.778;2023-08-20T03:58:46;11.02;;;8.13;;
40907;SDS011;51055;59.436;24.778;2023-08-20T04:01:13;8.10;;;6.95;;
40907;SDS011;51055;59.436;24.778;2023-08-20T04:03:41;8.35;;;6.38;;
40907;SDS011;51055;59.436;24.778;2023-08-20T04:06:08;8.75;;;6.78;;
40907;SDS011;51055;59.436;24.778;2023-08-20T04:08:36;11.05;;;7.32;;
40907;SDS011;51055;59.436;24.778;2023-08-20T04:11:03;8.52;;;6.13;;
40907;SDS011;51055;59.436;24.778;2023-08-20T04:13:31;10.45;;;7.00;;
40907;SDS011;51055;59.436;24.778;2023-08-20T04:15:59;10.85;;;7.68;;
40907;SDS011;51055;59.436;24.778;2023-08-20T04:18:26;8.07;;;6.70;;
40907;SDS011;51055;59.436;24.778;2023-08-20T04:20:54;10.10;;;6.55;;
40907;SDS011;51055;59.436;24.778;2023-08-20T04:23:22;10.00;;;6.22;;
40907;SDS011;51055;59.436;24.778;2023-08-20T04:25:50;10.90;;;7.55;;
40907;SDS011;51055;59.436;24.778;2023-08-20T04:28:18;9.77;;;7.10;;
40907;SDS011;51055;59.436;24.778;2023-08-20T04:30:46;11.93;;;7.03;;
40907;SDS011;51055;59.436;24.778;2023-08-20T04:33:13;8.68;;;6.38;;
40907;SDS011;51055;59.436;24.778;2023-08-20T04:35:41;9.10;;;6.75;;
40907;SDS011;51055;59.436;24.778;2023-08-20T04:38:09;8.95;;;6.57;;
40907;SDS011;51055;59.436;24.778;2023-08-20T04:40:37;10.10;;;6.85;;
40907;SDS011;51055;59.436;24.778;2023-08-20T04:43:05;7.47;;;6.15;;
40907;SDS011;51055;59.436;24.778;2023-08-20T04:45:32;9.23;;;6.20;;
40907;SDS011;51055;59.436;24.778;2023-08-20T04:48:00;9.65;;;6.20;;
40907;SDS011;51055;59.436;24.778;2023-08-20T04:50:28;8.80;;;6.20;;
40907;SDS011;51055;59.436;24.778;2023-08-20T04:52:55;10.10;;;7.18;;
40907;SDS011;51055;59.436;24.778;2023-08-20T04:55:23;9.88;;;6.72;;
40907;SDS011;51055;59.436;24.778;2023-08-20T04:57:51;11.85;;;7.95;;
40907;SDS011;51055;59.436;24.778;2023-08-20T05:00:18;12.10;;;8.00;;
40907;SDS011;51055;59.436;24.778;2023-08-20T05:02:46;9.10;;;7.22;;
40907;SDS011;51055;59.436;24.778;2023-08-20T05:05:14;11.75;;;7.38;;
40907;SDS011;51055;59.436;24.778;2023-08-20T05:07:41;9.40;;;7.35;;
40907;SDS011;51055;59.436;24.778;2023-08-20T05:10:09;12.38;;;7.72;;
40907;SDS011;51055;59.436;24.778;2023-08-20T05:12:37;10.30;;;8.30;;
40907;SDS011;51055;59.436;24.778;2023-08-20T05:15:05;10.80;;;8.65;;
40907;SDS011;51055;59.436;24.778;2023-08-20T05:17:33;13.73;;;9.60;;
40907;SDS011;51055;59.436;24.778;2023-08-20T05:20:01;12.10;;;9.25;;
40907;SDS011;51055;59.436;24.778;2023-08-20T05:22:29;11.43;;;8.45;;
40907;SDS011;51055;59.436;24.778;2023-08-20T05:24:57;13.80;;;9.20;;
40907;SDS011;51055;59.436;24.778;2023-08-20T05:27:25;12.63;;;10.00;;
40907;SDS011;51055;59.436;24.778;2023-08-20T05:29:53;12.18;;;9.93;;
40907;SDS011;51055;59.436;24.778;2023-08-20T05:32:20;11.45;;;9.63;;
40907;SDS011;51055;59.436;24.778;2023-08-20T05:34:48;12.25;;;10.05;;
40907;SDS011;51055;59.436;24.778;2023-08-20T05:37:16;12.45;;;10.70;;
40907;SDS011;51055;59.436;24.778;2023-08-20T05:39:43;10.32;;;9.10;;
40907;SDS011;51055;59.436;24.778;2023-08-20T05:42:12;12.35;;;9.80;;
40907;SDS011;51055;59.436;24.778;2023-08-20T05:44:39;15.63;;;10.10;;
40907;SDS011;51055;59.436;24.778;2023-08-20T05:47:07;12.20;;;9.60;;
40907;SDS011;51055;59.436;24.778;2023-08-20T05:49:35;10.90;;;9.68;;
40907;SDS011;51055;59.436;24.778;2023-08-20T05:52:03;12.20;;;9.32;;
40907;SDS011;51055;59.436;24.778;2023-08-20T05:54:30;13.20;;;9.95;;
40907;SDS011;51055;59.436;24.778;2023-08-20T05:56:58;12.77;;;9.90;;
40907;SDS011;51055;59.436;24.778;2023-08-20T05:59:26;9.82;;;7.90;;
40907;SDS011;51055;59.436;24.778;2023-08-20T06:01:53;11.48;;;8.18;;
40907;SDS011;51055;59.436;24.778;2023-08-20T06:04:21;9.53;;;8.20;;
40907;SDS011;51055;59.436;24.778;2023-08-20T06:06:49;9.85;;;8.32;;
40907;SDS011;51055;59.436;24.778;2023-08-20T06:09:16;11.73;;;8.38;;
40907;SDS011;51055;59.436;24.778;2023-08-20T06:11:44;10.07;;;7.80;;
40907;SDS011;51055;59.436;24.778;2023-08-20T06:14:12;10.00;;;7.70;;
40907;SDS011;51055;59.436;24.778;2023-08-20T06:16:40;10.82;;;7.50;;
40907;SDS011;51055;59.436;24.778;2023-08-20T06:19:07;10.55;;;7.35;;
40907;SDS011;51055;59.436;24.778;2023-08-20T06:21:35;8.95;;;6.60;;
40907;SDS011;51055;59.436;24.778;2023-08-20T06:24:03;9.20;;;6.85;;
40907;SDS011;51055;59.436;24.778;2023-08-20T06:26:31;8.15;;;5.60;;
40907;SDS011;51055;59.436;24.778;2023-08-20T06:28:59;7.55;;;5.63;;
40907;SDS011;51055;59.436;24.778;2023-08-20T06:31:27;7.57;;;6.22;;
40907;SDS011;51055;59.436;24.778;2023-08-20T06:33:55;9.23;;;6.10;;
40907;SDS011;51055;59.436;24.778;2023-08-20T06:36:22;8.93;;;6.13;;
40907;SDS011;51055;59.436;24.778;2023-08-20T06:38:50;7.53;;;5.78;;
40907;SDS011;51055;59.436;24.778;2023-08-20T06:41:18;8.32;;;5.53;;
40907;SDS011;51055;59.436;24.778;2023-08-20T06:43:45;8.40;;;5.88;;
40907;SDS011;51055;59.436;24.778;2023-08-20T06:46:13;9.02;;;5.95;;
40907;SDS011;51055;59.436;24.778;2023-08-20T06:48:40;8.88;;;5.93;;
40907;SDS011;51055;59.436;24.778;2023-08-20T06:51:10;7.07;;;5.20;;
40907;SDS011;51055;59.436;24.778;2023-08-20T06:53:39;6.65;;;5.07;;
40907;SDS011;51055;59.436;24.778;2023-08-20T06:56:08;9.02;;;5.40;;
40907;SDS011;51055;59.436;24.778;2023-08-20T06:58:36;6.57;;;5.00;;
40907;SDS011;51055;59.436;24.778;2023-08-20T07:01:07;8.73;;;5.78;;
40907;SDS011;51055;59.436;24.778;2023-08-20T07:03:40;7.60;;;4.95;;
40907;SDS011;51055;59.436;24.778;2023-08-20T07:06:09;6.90;;;5.20;;
40907;SDS011;51055;59.436;24.778;2023-08-20T07:11:06;8.90;;;4.88;;
40907;SDS011;51055;59.436;24.778;2023-08-20T07:13:35;9.63;;;5.47;;
40907;SDS011;51055;59.436;24.778;2023-08-20T07:16:03;7.38;;;5.32;;
40907;SDS011;51055;59.436;24.778;2023-08-20T07:18:31;7.75;;;5.55;;
40907;SDS011;51055;59.436;24.778;2023-08-20T07:20:58;7.35;;;5.30;;
40907;SDS011;51055;59.436;24.778;2023-08-20T07:23:26;8.70;;;5.88;;
40907;SDS011;51055;59.436;24.778;2023-08-20T07:26:03;7.93;;;5.40;;
40907;SDS011;51055;59.436;24.778;2023-08-20T07:28:32;11.30;;;6.07;;
40907;SDS011;51055;59.436;24.778;2023-08-20T07:31:19;13.02;;;6.18;;
40907;SDS011;51055;59.436;24.778;2023-08-20T07:33:48;8.20;;;6.15;;
40907;SDS011;51055;59.436;24.778;2023-08-20T07:36:16;9.07;;;6.22;;
40907;SDS011;51055;59.436;24.778;2023-08-20T07:38:45;7.53;;;6.10;;
40907;SDS011;51055;59.436;24.778;2023-08-20T07:41:13;7.18;;;5.80;;
40907;SDS011;51055;59.436;24.778;2023-08-20T07:43:41;8.52;;;6.32;;
40907;SDS011;51055;59.436;24.778;2023-08-20T07:46:09;7.97;;;5.95;;
40907;SDS011;51055;59.436;24.778;2023-08-20T07:48:37;7.63;;;5.85;;
40907;SDS011;51055;59.436;24.778;2023-08-20T07:51:05;7.60;;;6.20;;
40907;SDS011;51055;59.436;24.778;2023-08-20T07:53:33;8.00;;;6.40;;
40907;SDS011;51055;59.436;24.778;2023-08-20T07:56:02;8.82;;;6.80;;
40907;SDS011;51055;59.436;24.778;2023-08-20T07:58:29;7.35;;;5.72;;
40907;SDS011;51055;59.436;24.778;2023-08-20T08:00:57;11.50;;;7.50;;
40907;SDS011;51055;59.436;24.778;2023-08-20T08:03:26;9.68;;;8.18;;
40907;SDS011;51055;59.436;24.778;2023-08-20T08:08:22;9.05;;;7.75;;
40907;SDS011;51055;59.436;24.778;2023-08-20T08:10:50;9.88;;;8.88;;
40907;SDS011;51055;59.436;24.778;2023-08-20T08:13:19;9.63;;;7.70;;
40907;SDS011;51055;59.436;24.778;2023-08-20T08:15:49;11.23;;;8.45;;
40907;SDS011;51055;59.436;24.778;2023-08-20T08:18:18;10.30;;;7.85;;
40907;SDS011;51055;59.436;24.778;2023-08-20T08:20:46;10.88;;;7.93;;
40907;SDS011;51055;59.436;24.778;2023-08-20T08:23:14;8.93;;;7.40;;
40907;SDS011;51055;59.436;24.778;2023-08-20T08:25:41;9.18;;;7.05;;
40907;SDS011;51055;59.436;24.778;2023-08-20T08:28:09;11.75;;;6.93;;
40907;SDS011;51055;59.436;24.778;2023-08-20T08:30:37;8.70;;;6.93;;
40907;SDS011;51055;59.436;24.778;2023-08-20T08:33:05;9.02;;;6.40;;
40907;SDS011;51055;59.436;24.778;2023-08-20T08:35:33;7.45;;;5.55;;
40907;SDS011;51055;59.436;24.778;2023-08-20T08:38:00;8.25;;;5.70;;
40907;SDS011;51055;59.436;24.778;2023-08-20T08:40:29;8.07;;;6.13;;
40907;SDS011;51055;59.436;24.778;2023-08-20T08:42:57;8.27;;;6.25;;
40907;SDS011;51055;59.436;24.778;2023-08-20T08:45:25;7.38;;;6.00;;
40907;SDS011;51055;59.436;24.778;2023-08-20T08:47:53;7.30;;;5.70;;
40907;SDS011;51055;59.436;24.778;2023-08-20T08:50:22;7.13;;;5.40;;
40907;SDS011;51055;59.436;24.778;2023-08-20T08:52:51;6.45;;;4.90;;
40907;SDS011;51055;59.436;24.778;2023-08-20T08:55:20;7.80;;;4.93;;
40907;SDS011;51055;59.436;24.778;2023-08-20T08:57:48;6.83;;;4.60;;
40907;SDS011;51055;59.436;24.778;2023-08-20T09:00:16;7.18;;;4.40;;
40907;SDS011;51055;59.436;24.778;2023-08-20T09:02:44;6.22;;;4.13;;
40907;SDS011;51055;59.436;24.778;2023-08-20T09:05:14;7.07;;;4.53;;
40907;SDS011;51055;59.436;24.778;2023-08-20T09:07:43;6.07;;;4.20;;
40907;SDS011;51055;59.436;24.778;2023-08-20T09:10:12;6.63;;;4.68;;
40907;SDS011;51055;59.436;24.778;2023-08-20T09:12:39;7.20;;;4.72;;
40907;SDS011;51055;59.436;24.778;2023-08-20T09:15:10;6.57;;;4.65;;
40907;SDS011;51055;59.436;24.778;2023-08-20T09:17:40;7.03;;;5.05;;
40907;SDS011;51055;59.436;24.778;2023-08-20T09:20:09;7.85;;;4.60;;
40907;SDS011;51055;59.436;24.778;2023-08-20T09:22:37;6.67;;;4.73;;
40907;SDS011;51055;59.436;24.778;2023-08-20T09:25:04;6.03;;;4.63;;
40907;SDS011;51055;59.436;24.778;2023-08-20T09:27:38;7.80;;;5.27;;
40907;SDS011;51055;59.436;24.778;2023-08-20T09:30:08;7.00;;;5.30;;
40907;SDS011;51055;59.436;24.778;2023-08-20T09:32:36;8.18;;;5.10;;
40907;SDS011;51055;59.436;24.778;2023-08-20T09:35:04;8.07;;;5.82;;
40907;SDS011;51055;59.436;24.778;2023-08-20T09:37:32;7.90;;;6.03;;
40907;SDS011;51055;59.436;24.778;2023-08-20T09:40:00;7.28;;;5.80;;
40907;SDS011;51055;59.436;24.778;2023-08-20T09:42:29;9.25;;;6.25;;
40907;SDS011;51055;59.436;24.778;2023-08-20T09:45:00;9.63;;;6.18;;
40907;SDS011;51055;59.436;24.778;2023-08-20T09:47:31;7.82;;;6.13;;
40907;SDS011;51055;59.436;24.778;2023-08-20T09:50:05;7.68;;;6.13;;
40907;SDS011;51055;59.436;24.778;2023-08-20T09:52:39;8.73;;;6.20;;
40907;SDS011;51055;59.436;24.778;2023-08-20T09:55:18;8.20;;;6.75;;
40907;SDS011;51055;59.436;24.778;2023-08-20T09:57:49;7.38;;;5.88;;
40907;SDS011;51055;59.436;24.778;2023-08-20T10:00:17;8.48;;;6.15;;
40907;SDS011;51055;59.436;24.778;2023-08-20T10:02:45;7.65;;;6.68;;
40907;SDS011;51055;59.436;24.778;2023-08-20T10:05:13;10.18;;;6.43;;
40907;SDS011;51055;59.436;24.778;2023-08-20T10:07:42;7.18;;;6.25;;
40907;SDS011;51055;59.436;24.778;2023-08-20T10:10:10;9.32;;;6.68;;
40907;SDS011;51055;59.436;24.778;2023-08-20T10:12:41;8.40;;;6.50;;
40907;SDS011;51055;59.436;24.778;2023-08-20T10:15:12;8.48;;;6.68;;
40907;SDS011;51055;59.436;24.778;2023-08-20T10:17:41;8.27;;;7.28;;
40907;SDS011;51055;59.436;24.778;2023-08-20T10:20:10;8.10;;;6.40;;
40907;SDS011;51055;59.436;24.778;2023-08-20T10:22:42;8.20;;;6.80;;
40907;SDS011;51055;59.436;24.778;2023-08-20T10:25:32;9.60;;;7.50;;
40907;SDS011;51055;59.436;24.778;2023-08-20T10:28:13;7.63;;;6.75;;
40907;SDS011;51055;59.436;24.778;2023-08-20T10:31:03;9.43;;;7.20;;
40907;SDS011;51055;59.436;24.778;2023-08-20T10:33:37;9.33;;;7.17;;
40907;SDS011;51055;59.436;24.778;2023-08-20T10:36:07;8.45;;;7.25;;
40907;SDS011;51055;59.436;24.778;2023-08-20T10:38:41;9.23;;;6.85;;
40907;SDS011;51055;59.436;24.778;2023-08-20T10:41:08;8.02;;;6.57;;
40907;SDS011;51055;59.436;24.778;2023-08-20T10:46:16;9.93;;;7.00;;
40907;SDS011;51055;59.436;24.778;2023-08-20T11:01:45;9.82;;;7.95;;
40907;SDS011;51055;59.436;24.778;2023-08-20T11:04:17;10.90;;;8.07;;
40907;SDS011;51055;59.436;24.778;2023-08-20T11:06:52;9.95;;;8.90;;
40907;SDS011;51055;59.436;24.778;2023-08-20T11:09:22;10.90;;;9.23;;
40907;SDS011;51055;59.436;24.778;2023-08-20T11:11:51;9.95;;;8.60;;
40907;SDS011;51055;59.436;24.778;2023-08-20T11:14:20;9.98;;;8.98;;
40907;SDS011;51055;59.436;24.778;2023-08-20T11:16:49;10.07;;;8.80;;
40907;SDS011;51055;59.436;24.778;2023-08-20T11:19:23;9.73;;;8.73;;
40907;SDS011;51055;59.436;24.778;2023-08-20T11:21:51;9.95;;;8.02;;
40907;SDS011;51055;59.436;24.778;2023-08-20T11:24:19;9.07;;;8.10;;
40907;SDS011;51055;59.436;24.778;2023-08-20T11:26:48;8.70;;;7.80;;
40907;SDS011;51055;59.436;24.778;2023-08-20T11:29:16;10.65;;;8.20;;
40907;SDS011;51055;59.436;24.778;2023-08-20T11:31:48;9.07;;;7.10;;
40907;SDS011;51055;59.436;24.778;2023-08-20T11:34:17;10.50;;;7.55;;
40907;SDS011;51055;59.436;24.778;2023-08-20T11:36:46;8.95;;;7.95;;
40907;SDS011;51055;59.436;24.778;2023-08-20T11:39:13;8.70;;;6.90;;
40907;SDS011;51055;59.436;24.778;2023-08-20T11:41:43;8.27;;;6.85;;
40907;SDS011;51055;59.436;24.778;2023-08-20T11:44:18;8.25;;;6.50;;
40907;SDS011;51055;59.436;24.778;2023-08-20T11:46:47;7.68;;;6.78;;
40907;SDS011;51055;59.436;24.778;2023-08-20T11:49:16;8.70;;;6.38;;
40907;SDS011;51055;59.436;24.778;2023-08-20T11:51:47;8.10;;;6.23;;
40907;SDS011;51055;59.436;24.778;2023-08-20T11:54:17;6.88;;;5.72;;
40907;SDS011;51055;59.436;24.778;2023-08-20T11:56:49;7.15;;;5.80;;
40907;SDS011;51055;59.436;24.778;2023-08-20T11:59:21;6.95;;;5.55;;
40907;SDS011;51055;59.436;24.778;2023-08-20T12:01:51;7.88;;;5.35;;
40907;SDS011;51055;59.436;24.778;2023-08-20T12:04:23;6.30;;;5.07;;
40907;SDS011;51055;59.436;24.778;2023-08-20T12:09:35;8.43;;;5.13;;
40907;SDS011;51055;59.436;24.778;2023-08-20T12:12:05;6.28;;;4.50;;
40907;SDS011;51055;59.436;24.778;2023-08-20T12:14:34;7.78;;;4.55;;
40907;SDS011;51055;59.436;24.778;2023-08-20T12:17:02;6.10;;;4.60;;
40907;SDS011;51055;59.436;24.778;2023-08-20T12:19:33;6.63;;;4.43;;
40907;SDS011;51055;59.436;24.778;2023-08-20T12:22:00;6.25;;;3.92;;
40907;SDS011;51055;59.436;24.778;2023-08-20T12:24:28;7.22;;;4.25;;
40907;SDS011;51055;59.436;24.778;2023-08-20T12:26:56;6.60;;;3.83;;
40907;SDS011;51055;59.436;24.778;2023-08-20T12:29:24;5.93;;;3.70;;
40907;SDS011;51055;59.436;24.778;2023-08-20T12:31:52;5.72;;;3.97;;
40907;SDS011;51055;59.436;24.778;2023-08-20T12:34:20;6.43;;;3.90;;
40907;SDS011;51055;59.436;24.778;2023-08-20T12:36:49;6.32;;;3.78;;
40907;SDS011;51055;59.436;24.778;2023-08-20T12:39:17;7.32;;;4.00;;
40907;SDS011;51055;59.436;24.778;2023-08-20T12:41:45;7.15;;;4.18;;
40907;SDS011;51055;59.436;24.778;2023-08-20T12:44:13;5.93;;;3.20;;
40907;SDS011;51055;59.436;24.778;2023-08-20T12:46:40;6.47;;;3.92;;
40907;SDS011;51055;59.436;24.778;2023-08-20T12:49:08;8.45;;;3.88;;
40907;SDS011;51055;59.436;24.778;2023-08-20T12:51:36;5.80;;;3.60;;
40907;SDS011;51055;59.436;24.778;2023-08-20T12:54:03;5.97;;;3.65;;
40907;SDS011;51055;59.436;24.778;2023-08-20T12:56:31;6.00;;;3.53;;
40907;SDS011;51055;59.436;24.778;2023-08-20T12:58:59;5.97;;;3.40;;
40907;SDS011;51055;59.436;24.778;2023-08-20T13:01:27;5.53;;;3.70;;
40907;SDS011;51055;59.436;24.778;2023-08-20T13:03:54;6.35;;;3.65;;
40907;SDS011;51055;59.436;24.778;2023-08-20T13:06:23;6.18;;;3.50;;
40907;SDS011;51055;59.436;24.778;2023-08-20T13:08:51;5.32;;;3.47;;
40907;SDS011;51055;59.436;24.778;2023-08-20T13:11:19;5.43;;;3.22;;
40907;SDS011;51055;59.436;24.778;2023-08-20T13:13:47;5.40;;;3.40;;
40907;SDS011;51055;59.436;24.778;2023-08-20T13:16:15;6.00;;;3.17;;
40907;SDS011;51055;59.436;24.778;2023-08-20T13:18:45;5.22;;;3.22;;
40907;SDS011;51055;59.436;24.778;2023-08-20T13:21:13;5.32;;;3.22;;
40907;SDS011;51055;59.436;24.778;2023-08-20T13:23:41;5.22;;;3.30;;
40907;SDS011;51055;59.436;24.778;2023-08-20T13:26:09;7.97;;;3.95;;
40907;SDS011;51055;59.436;24.778;2023-08-20T13:28:37;7.90;;;3.70;;
40907;SDS011;51055;59.436;24.778;2023-08-20T13:31:05;5.90;;;3.80;;
40907;SDS011;51055;59.436;24.778;2023-08-20T13:33:33;6.57;;;3.60;;
40907;SDS011;51055;59.436;24.778;2023-08-20T13:36:01;5.50;;;3.38;;
40907;SDS011;51055;59.436;24.778;2023-08-20T13:38:29;5.70;;;3.53;;
40907;SDS011;51055;59.436;24.778;2023-08-20T13:40:57;6.07;;;3.47;;
40907;SDS011;51055;59.436;24.778;2023-08-20T13:43:25;5.38;;;3.45;;
40907;SDS011;51055;59.436;24.778;2023-08-20T13:45:52;7.20;;;3.60;;
40907;SDS011;51055;59.436;24.778;2023-08-20T13:48:20;4.53;;;2.90;;
40907;SDS011;51055;59.436;24.778;2023-08-20T13:50:48;5.07;;;2.80;;
40907;SDS011;51055;59.436;24.778;2023-08-20T13:53:16;5.95;;;4.15;;
40907;SDS011;51055;59.436;24.778;2023-08-20T13:55:44;7.10;;;3.45;;
40907;SDS011;51055;59.436;24.778;2023-08-20T13:58:12;7.00;;;3.00;;
40907;SDS011;51055;59.436;24.778;2023-08-20T14:00:40;5.25;;;2.78;;
40907;SDS011;51055;59.436;24.778;2023-08-20T14:03:07;6.60;;;2.92;;
40907;SDS011;51055;59.436;24.778;2023-08-20T14:05:35;6.07;;;2.67;;
40907;SDS011;51055;59.436;24.778;2023-08-20T14:08:03;7.20;;;3.23;;
40907;SDS011;51055;59.436;24.778;2023-08-20T14:10:31;5.03;;;2.75;;
40907;SDS011;51055;59.436;24.778;2023-08-20T14:12:59;4.28;;;2.55;;
40907;SDS011;51055;59.436;24.778;2023-08-20T14:15:26;4.88;;;2.78;;
40907;SDS011;51055;59.436;24.778;2023-08-20T14:17:54;6.25;;;2.67;;
40907;SDS011;51055;59.436;24.778;2023-08-20T14:20:21;5.20;;;2.78;;
40907;SDS011;51055;59.436;24.778;2023-08-20T14:22:49;4.97;;;2.85;;
40907;SDS011;51055;59.436;24.778;2023-08-20T14:25:16;5.55;;;2.70;;
40907;SDS011;51055;59.436;24.778;2023-08-20T14:27:44;4.68;;;2.53;;
40907;SDS011;51055;59.436;24.778;2023-08-20T14:30:11;5.72;;;2.63;;
40907;SDS011;51055;59.436;24.778;2023-08-20T14:32:39;4.40;;;2.20;;
40907;SDS011;51055;59.436;24.778;2023-08-20T14:35:08;5.65;;;2.53;;
40907;SDS011;51055;59.436;24.778;2023-08-20T14:37:37;4.88;;;2.38;;
40907;SDS011;51055;59.436;24.778;2023-08-20T14:40:05;5.50;;;2.50;;
40907;SDS011;51055;59.436;24.778;2023-08-20T14:42:33;6.50;;;2.50;;
40907;SDS011;51055;59.436;24.778;2023-08-20T14:45:02;7.72;;;3.05;;
40907;SDS011;51055;59.436;24.778;2023-08-20T14:49:58;5.32;;;2.45;;
40907;SDS011;51055;59.436;24.778;2023-08-20T14:52:26;4.53;;;2.25;;
40907;SDS011;51055;59.436;24.778;2023-08-20T14:54:53;5.47;;;2.10;;
40907;SDS011;51055;59.436;24.778;2023-08-20T14:57:21;5.38;;;2.20;;
40907;SDS011;51055;59.436;24.778;2023-08-20T14:59:50;5.60;;;2.10;;
40907;SDS011;51055;59.436;24.778;2023-08-20T15:02:18;4.20;;;2.45;;
40907;SDS011;51055;59.436;24.778;2023-08-20T15:04:46;4.63;;;2.30;;
40907;SDS011;51055;59.436;24.778;2023-08-20T15:07:14;4.90;;;2.40;;
40907;SDS011;51055;59.436;24.778;2023-08-20T15:09:42;4.37;;;2.07;;
40907;SDS011;51055;59.436;24.778;2023-08-20T15:12:09;4.87;;;2.20;;
40907;SDS011;51055;59.436;24.778;2023-08-20T15:14:37;4.75;;;2.13;;
40907;SDS011;51055;59.436;24.778;2023-08-20T15:17:05;4.65;;;2.15;;
40907;SDS011;51055;59.436;24.778;2023-08-20T15:19:33;6.07;;;2.37;;
40907;SDS011;51055;59.436;24.778;2023-08-20T15:22:00;3.58;;;2.05;;
40907;SDS011;51055;59.436;24.778;2023-08-20T15:24:28;4.53;;;2.20;;